Time;durP1;ratioP1;P1;durP2;ratioP2;P2;SDS_P1;SDS_P2;PMS_P1;PMS_P2;Temp;Humidity;BMP_temperature;BMP_pressure;BME280_temperature;BME280_humidity;BME280_pressure;Samples;Min_cycle;Max_cycle;Signal;HPM_P1;HPM_P2
2023/05/01 00:02:19;;;;;;;11.10;10.47;;;;;;;10.17;91.05;92792.50;5070180;28;20248;-70
2023/05/01 00:04:44;;;;;;;9.80;9.10;;;;;;;10.22;90.70;92796.88;5070178;28;20221;-70
2023/05/01 00:07:10;;;;;;;12.10;11.20;;;;;;;9.92;91.10;92792.59;5069455;28;20197;-71
2023/05/01 00:09:35;;;;;;;12.13;11.00;;;;;;;10.06;91.28;92804.00;5069092;28;20217;-71
2023/05/01 00:12:01;;;;;;;11.17;10.47;;;;;;;10.05;91.07;92789.41;5070140;28;20192;-70
2023/05/01 00:14:27;;;;;;;11.30;10.50;;;;;;;10.27;91.00;92800.25;5069536;28;20206;-70
2023/05/01 00:16:53;;;;;;;12.57;11.53;;;;;;;10.00;91.17;92789.44;5069245;28;20200;-70
2023/05/01 00:19:18;;;;;;;11.30;10.70;;;;;;;9.95;92.73;92792.06;5069528;28;20189;-70
2023/05/01 00:21:45;;;;;;;11.10;10.43;;;;;;;9.97;92.15;92792.59;5069642;28;20212;-70
2023/05/01 00:24:11;;;;;;;13.00;11.97;;;;;;;10.02;92.83;92803.00;5069866;28;20244;-70
2023/05/01 00:26:36;;;;;;;12.53;11.67;;;;;;;9.97;92.74;92808.22;5069334;28;20318;-70
2023/05/01 00:29:02;;;;;;;12.23;11.17;;;;;;;9.90;92.81;92805.13;5070388;28;20276;-68
2023/05/01 00:31:27;;;;;;;13.07;12.17;;;;;;;9.97;92.64;92800.41;5068412;28;20222;-70
2023/05/01 00:33:53;;;;;;;11.70;10.87;;;;;;;10.11;91.75;92805.81;5069169;28;20186;-70
2023/05/01 00:36:18;;;;;;;13.83;12.73;;;;;;;9.93;91.51;92788.94;5068647;28;20237;-70
2023/05/01 00:38:45;;;;;;;11.10;10.50;;;;;;;10.05;91.87;92802.44;5069670;28;20213;-70
2023/05/01 00:41:10;;;;;;;12.03;11.33;;;;;;;10.05;92.25;92801.66;5068749;28;20218;-70
2023/05/01 00:43:36;;;;;;;12.43;11.53;;;;;;;10.08;92.10;92809.78;5069417;28;20267;-71
2023/05/01 00:46:01;;;;;;;11.63;10.93;;;;;;;9.96;92.80;92801.44;5069075;28;20263;-71
2023/05/01 00:48:27;;;;;;;12.23;11.33;;;;;;;9.79;93.85;92809.63;5068922;28;20220;-70
2023/05/01 00:50:54;;;;;;;11.93;11.23;;;;;;;9.82;94.19;92808.31;5068949;28;20214;-70
2023/05/01 00:53:20;;;;;;;12.33;11.33;;;;;;;9.96;93.65;92811.88;5069320;28;20269;-70
2023/05/01 00:55:46;;;;;;;12.83;12.07;;;;;;;9.84;94.09;92808.81;5068655;28;20214;-70
2023/05/01 00:58:12;;;;;;;12.43;11.70;;;;;;;9.91;94.86;92819.75;5069522;28;20279;-70
2023/05/01 01:00:37;;;;;;;12.73;11.83;;;;;;;9.79;94.93;92816.66;5068773;28;20226;-70
2023/05/01 01:03:03;;;;;;;12.07;11.37;;;;;;;9.87;95.47;92833.59;5069042;28;20778;-70
2023/05/01 01:05:34;;;;;;;13.37;12.57;;;;;;;9.82;94.09;92819.50;5068187;28;20226;-70
2023/05/01 01:08:19;;;;;;;12.27;11.20;;;;;;;9.49;95.41;92838.41;5069217;28;20195;-71
2023/05/01 01:10:59;;;;;;;11.17;10.57;;;;;;;9.50;96.05;92833.97;5066875;28;20221;-70
2023/05/01 01:13:34;;;;;;;11.70;11.00;;;;;;;9.66;95.77;92827.69;5069240;28;20215;-70
2023/05/01 01:16:22;;;;;;;12.90;12.00;;;;;;;9.63;95.60;92833.44;5068676;28;20221;-70
2023/05/01 01:18:51;;;;;;;11.33;10.40;;;;;;;9.48;96.79;92828.25;5067559;28;20190;-70
2023/05/01 01:21:31;;;;;;;12.93;12.13;;;;;;;9.39;98.33;92822.81;5068454;28;20230;-70
2023/05/01 01:24:27;;;;;;;12.63;11.93;;;;;;;9.35;98.19;92826.22;5072894;28;20235;-70
2023/05/01 01:27:25;;;;;;;12.60;11.90;;;;;;;9.28;98.27;92825.72;5070286;28;20252;-71
2023/05/01 01:30:10;;;;;;;12.03;11.33;;;;;;;9.43;97.61;92823.06;5064664;28;20233;-70
2023/05/01 01:33:11;;;;;;;13.10;12.23;;;;;;;9.39;97.28;92832.44;5040283;28;20207;-71
2023/05/01 01:35:41;;;;;;;11.90;11.10;;;;;;;9.12;98.56;92830.16;5056997;28;20213;-71
2023/05/01 01:38:18;;;;;;;12.73;11.93;;;;;;;9.13;98.49;92831.75;5072508;28;20183;-71
2023/05/01 01:41:07;;;;;;;12.10;11.40;;;;;;;9.20;98.81;92828.84;5071132;28;20237;-71
2023/05/01 01:43:38;;;;;;;12.70;11.93;;;;;;;9.15;98.28;92841.91;5072188;28;20216;-70
2023/05/01 01:46:06;;;;;;;11.63;10.93;;;;;;;9.08;98.34;92828.38;5071718;28;20218;-72
2023/05/01 01:48:35;;;;;;;13.57;12.47;;;;;;;9.02;99.09;92829.41;5064267;28;20178;-71
2023/05/01 01:51:07;;;;;;;11.37;10.67;;;;;;;9.11;99.05;92836.44;5071283;28;20281;-71
2023/05/01 01:53:36;;;;;;;12.10;11.30;;;;;;;9.01;99.19;92827.88;5070012;28;20196;-71
2023/05/01 01:56:03;;;;;;;13.23;12.40;;;;;;;9.14;98.96;92829.91;5071580;28;20227;-69
2023/05/01 01:58:30;;;;;;;11.47;10.77;;;;;;;9.09;99.31;92824.72;5072711;28;20196;-72
2023/05/01 02:00:57;;;;;;;13.50;11.83;;;;;;;9.10;99.17;92823.69;5072145;28;20221;-71
2023/05/01 02:03:23;;;;;;;14.17;11.70;;;;;;;8.99;99.15;92811.72;5071100;28;20210;-70
2023/05/01 02:05:51;;;;;;;12.37;11.63;;;;;;;9.05;99.91;92826.28;5071677;28;20233;-71
2023/05/01 02:08:17;;;;;;;12.77;11.87;;;;;;;8.97;98.59;92782.56;5072333;28;20224;-71
2023/05/01 02:10:46;;;;;;;12.37;11.53;;;;;;;9.21;98.61;92817.41;5071430;28;20237;-70
2023/05/01 02:13:13;;;;;;;13.90;12.83;;;;;;;9.30;98.69;92823.63;5072133;28;20213;-71
2023/05/01 02:15:39;;;;;;;13.40;12.50;;;;;;;9.21;98.69;92815.56;5069348;28;20233;-72
2023/05/01 02:18:06;;;;;;;11.80;10.93;;;;;;;9.23;98.50;92813.47;5071569;28;20184;-71
2023/05/01 02:20:32;;;;;;;12.30;11.27;;;;;;;9.14;98.63;92811.69;5071184;28;20717;-70
2023/05/01 02:22:58;;;;;;;11.60;10.83;;;;;;;9.00;99.67;92811.47;5071939;28;20218;-70
2023/05/01 02:25:26;;;;;;;13.03;12.10;;;;;;;9.02;99.69;92800.78;5071545;28;20277;-69
2023/05/01 02:27:58;;;;;;;12.87;11.83;;;;;;;8.99;99.90;92812.50;5054306;28;20297;-71
2023/05/01 02:30:24;;;;;;;12.10;11.30;;;;;;;9.00;100.00;92808.06;5071625;28;20871;-70
2023/05/01 02:32:50;;;;;;;13.20;12.40;;;;;;;9.04;99.98;92814.31;5070756;28;20190;-70
2023/05/01 02:35:16;;;;;;;12.73;12.03;;;;;;;8.86;100.00;92814.84;5070702;28;20232;-70
2023/05/01 02:37:42;;;;;;;12.30;10.93;;;;;;;8.83;100.00;92808.38;5071918;28;20210;-70
2023/05/01 02:40:10;;;;;;;11.47;10.77;;;;;;;8.86;100.00;92791.44;5071224;28;20302;-70
2023/05/01 02:42:37;;;;;;;11.70;11.00;;;;;;;8.88;100.00;92815.38;5071494;28;20206;-70
2023/05/01 02:45:07;;;;;;;10.90;10.20;;;;;;;8.95;100.00;92824.47;5071367;28;20217;-70
2023/05/01 02:47:43;;;;;;;12.60;11.80;;;;;;;8.78;100.00;92805.00;5071444;28;20177;-69
2023/05/01 02:50:09;;;;;;;11.47;10.87;;;;;;;8.84;100.00;92816.97;5071034;28;20221;-70
2023/05/01 02:52:36;;;;;;;11.43;10.73;;;;;;;8.79;99.53;92811.75;5071224;28;20194;-71
2023/05/01 02:55:02;;;;;;;11.50;10.73;;;;;;;8.80;100.00;92824.50;5057391;28;20284;-71
2023/05/01 02:57:28;;;;;;;12.33;11.63;;;;;;;8.37;100.00;92819.84;5071745;28;20212;-70
2023/05/01 02:59:53;;;;;;;12.23;11.43;;;;;;;8.63;100.00;92828.41;5071531;28;20224;-70
2023/05/01 03:02:18;;;;;;;12.13;11.23;;;;;;;8.76;100.00;92835.69;5070301;28;20189;-69
2023/05/01 03:04:44;;;;;;;12.13;11.43;;;;;;;8.79;100.00;92833.38;5071134;28;20244;-70
2023/05/01 03:07:09;;;;;;;10.93;10.23;;;;;;;8.77;99.78;92826.84;5071230;28;20265;-70
2023/05/01 03:09:35;;;;;;;11.77;10.73;;;;;;;8.64;100.00;92830.75;5070818;28;20241;-70
2023/05/01 03:12:01;;;;;;;11.80;11.10;;;;;;;8.76;99.38;92828.69;5071133;28;20182;-71
2023/05/01 03:14:28;;;;;;;12.03;11.23;;;;;;;8.62;100.00;92827.66;5070547;28;20189;-70
2023/05/01 03:16:54;;;;;;;11.50;10.80;;;;;;;8.64;100.00;92809.16;5071264;28;20208;-70
2023/05/01 03:19:19;;;;;;;11.73;10.97;;;;;;;8.79;100.00;92829.97;5070476;28;20201;-70
2023/05/01 03:21:44;;;;;;;12.50;11.80;;;;;;;8.66;100.00;92818.25;5069263;28;20198;-70
2023/05/01 03:24:10;;;;;;;11.60;10.80;;;;;;;8.69;100.00;92816.94;5070462;28;20213;-70
2023/05/01 03:26:35;;;;;;;12.30;11.50;;;;;;;8.70;100.00;92818.53;5070176;28;20241;-70
2023/05/01 03:29:01;;;;;;;11.93;11.23;;;;;;;8.52;100.00;92824.25;5071197;28;20213;-69
2023/05/01 03:31:26;;;;;;;12.37;11.47;;;;;;;8.47;100.00;92834.69;5070308;28;20221;-70
2023/05/01 03:33:51;;;;;;;12.17;11.37;;;;;;;8.49;100.00;92832.56;5070924;28;20185;-70
2023/05/01 03:36:17;;;;;;;11.77;10.93;;;;;;;8.50;100.00;92845.31;5070068;28;20225;-70
2023/05/01 03:38:42;;;;;;;12.30;11.50;;;;;;;8.58;100.00;92837.00;5070276;28;20199;-70
2023/05/01 03:41:08;;;;;;;11.90;11.17;;;;;;;8.75;100.00;92849.75;5069643;28;20273;-70
2023/05/01 03:43:33;;;;;;;12.93;12.13;;;;;;;8.75;100.00;92842.72;5070159;28;20205;-70
2023/05/01 03:45:59;;;;;;;12.50;11.67;;;;;;;8.73;100.00;92855.22;5069748;28;20256;-70
2023/05/01 03:48:24;;;;;;;13.03;12.07;;;;;;;8.64;100.00;92848.22;5070644;28;20198;-70
2023/05/01 03:50:50;;;;;;;13.30;12.43;;;;;;;8.81;100.00;92840.91;5069988;28;20279;-70
2023/05/01 03:53:16;;;;;;;13.23;11.97;;;;;;;9.04;100.00;92861.97;5052169;28;20196;-70
2023/05/01 03:55:42;;;;;;;15.37;12.17;;;;;;;8.92;99.82;92863.28;5069926;28;20229;-70
2023/05/01 03:58:07;;;;;;;12.60;11.77;;;;;;;8.85;100.00;92852.34;5070326;28;20268;-70
2023/05/01 04:00:33;;;;;;;13.00;11.93;;;;;;;9.10;100.00;92849.72;5052748;28;20232;-70
2023/05/01 04:02:58;;;;;;;12.90;11.90;;;;;;;9.19;99.08;92853.34;5070322;28;20316;-69
2023/05/01 04:05:24;;;;;;;13.63;12.70;;;;;;;9.15;98.72;92852.31;5069331;28;20284;-71
2023/05/01 04:07:49;;;;;;;16.37;13.13;;;;;;;9.36;98.98;92867.66;5069316;28;20256;-70
2023/05/01 04:10:16;;;;;;;11.97;11.17;;;;;;;9.32;99.71;92873.66;5069755;28;20217;-71
2023/05/01 04:12:41;;;;;;;15.53;14.33;;;;;;;9.47;98.97;92873.59;5069180;28;20186;-71
2023/05/01 04:15:08;;;;;;;13.23;12.40;;;;;;;9.58;98.63;92867.31;5068341;28;20247;-71
2023/05/01 04:17:35;;;;;;;12.77;11.80;;;;;;;9.60;97.36;92870.44;5068986;28;20217;-70
2023/05/01 04:20:00;;;;;;;12.83;12.00;;;;;;;9.73;97.17;92875.88;5050572;28;20281;-70
2023/05/01 04:22:26;;;;;;;13.10;12.20;;;;;;;9.88;95.75;92850.78;5068124;28;20215;-70
2023/05/01 04:24:51;;;;;;;12.77;11.87;;;;;;;10.01;96.04;92866.63;5068239;28;20218;-70
2023/05/01 04:27:18;;;;;;;12.03;11.23;;;;;;;10.14;95.58;92865.28;5068671;28;20213;-70
2023/05/01 04:29:44;;;;;;;13.67;12.47;;;;;;;10.37;94.15;92875.84;5068672;28;20236;-70
2023/05/01 04:32:09;;;;;;;13.70;12.57;;;;;;;10.56;92.93;92866.34;5068760;28;20249;-71
2023/05/01 04:34:35;;;;;;;13.13;12.20;;;;;;;10.81;92.35;92881.03;5067782;28;20289;-71
2023/05/01 04:37:02;;;;;;;13.00;12.10;;;;;;;10.70;92.66;92875.13;5068337;28;20177;-71
2023/05/01 04:39:27;;;;;;;14.10;12.93;;;;;;;10.80;92.52;92880.25;5066875;28;20207;-71
2023/05/01 04:41:52;;;;;;;14.80;13.47;;;;;;;10.89;91.79;92868.19;5067256;28;20206;-71
2023/05/01 04:44:18;;;;;;;13.47;12.47;;;;;;;11.22;90.20;92880.44;5069132;28;20213;-71
2023/05/01 04:46:43;;;;;;;13.27;11.60;;;;;;;10.89;90.66;92833.44;5069632;28;20193;-71
2023/05/01 04:49:09;;;;;;;14.43;13.40;;;;;;;11.19;91.32;92896.66;5068595;28;20181;-71
2023/05/01 04:51:34;;;;;;;14.90;13.70;;;;;;;11.16;91.77;92893.81;5069032;28;20223;-71
2023/05/01 04:54:00;;;;;;;14.53;12.33;;;;;;;11.30;90.68;92892.91;5068491;28;20193;-70
2023/05/01 04:56:26;;;;;;;14.03;12.93;;;;;;;11.57;89.03;92891.59;5070692;28;20226;-70
2023/05/01 04:58:51;;;;;;;13.87;12.77;;;;;;;11.68;88.25;92903.53;5073754;28;20203;-71
2023/05/01 05:01:17;;;;;;;14.27;13.13;;;;;;;11.83;88.14;92900.78;5073527;28;20232;-71
2023/05/01 05:03:42;;;;;;;14.07;12.70;;;;;;;11.53;88.84;92906.28;5073587;28;20217;-69
2023/05/01 05:06:08;;;;;;;14.00;12.93;;;;;;;11.77;87.75;92894.81;5055642;28;20819;-70
2023/05/01 05:08:33;;;;;;;13.90;12.60;;;;;;;12.01;87.78;92902.66;5073650;28;20189;-70
2023/05/01 05:10:59;;;;;;;13.67;12.67;;;;;;;12.35;86.05;92905.91;5072782;28;20224;-71
2023/05/01 05:13:25;;;;;;;15.43;14.23;;;;;;;12.37;84.72;92919.50;5073427;28;20192;-71
2023/05/01 05:15:50;;;;;;;13.70;12.70;;;;;;;12.39;85.38;92915.53;5072827;28;20248;-70
2023/05/01 05:18:15;;;;;;;14.67;13.43;;;;;;;12.38;84.55;92918.44;5073163;28;20901;-70
2023/05/01 05:20:41;;;;;;;14.63;13.43;;;;;;;12.53;84.98;92923.47;5072913;28;20287;-71
2023/05/01 05:23:06;;;;;;;16.00;14.30;;;;;;;12.77;83.78;92926.81;5073291;28;20232;-70
2023/05/01 05:25:32;;;;;;;16.10;14.77;;;;;;;12.93;83.57;92934.16;5072356;28;20229;-68
2023/05/01 05:27:59;;;;;;;15.27;13.97;;;;;;;13.00;83.56;92935.69;5073141;28;20222;-68
2023/05/01 05:30:25;;;;;;;15.97;14.67;;;;;;;14.02;78.72;92939.75;5073015;28;20247;-71
2023/05/01 05:32:50;;;;;;;15.70;14.50;;;;;;;15.81;71.00;92960.56;5065990;28;20212;-69
2023/05/01 05:35:16;;;;;;;16.13;14.83;;;;;;;17.38;64.03;92955.16;5072538;28;20220;-69
2023/05/01 05:37:42;;;;;;;16.43;15.13;;;;;;;19.62;56.18;92966.06;5059181;28;20194;-71
2023/05/01 05:40:08;;;;;;;15.33;14.03;;;;;;;20.78;51.64;92964.69;5072045;28;20217;-71
2023/05/01 05:42:33;;;;;;;13.63;12.33;;;;;;;22.00;48.05;92972.09;5072444;28;20217;-71
2023/05/01 05:44:59;;;;;;;14.43;13.03;;;;;;;25.56;38.99;92973.72;5071821;28;20279;-71
2023/05/01 05:47:24;;;;;;;13.30;12.10;;;;;;;26.30;36.34;92969.31;5073045;28;20227;-69
2023/05/01 05:49:50;;;;;;;12.48;11.57;;;;;;;27.17;34.98;92973.94;5071975;28;20278;-71
2023/05/01 05:52:16;;;;;;;11.60;10.60;;;;;;;27.79;33.34;92978.19;5072663;28;20216;-72
2023/05/01 05:54:41;;;;;;;13.07;12.00;;;;;;;26.93;34.32;92961.88;5071966;28;20875;-71
2023/05/01 05:57:07;;;;;;;12.45;11.52;;;;;;;26.33;35.42;92968.56;5072928;28;20181;-71
2023/05/01 05:59:33;;;;;;;12.23;11.43;;;;;;;26.57;35.86;92963.47;5072416;28;20304;-71
2023/05/01 06:01:58;;;;;;;11.77;10.77;;;;;;;29.00;31.22;92988.94;5072715;28;20204;-71
2023/05/01 06:04:24;;;;;;;12.13;11.13;;;;;;;28.47;32.02;92974.66;5071476;28;20293;-72
2023/05/01 06:06:49;;;;;;;12.27;11.18;;;;;;;27.73;33.67;92985.84;5071670;28;20196;-71
2023/05/01 06:09:16;;;;;;;12.93;11.73;;;;;;;27.17;33.71;92984.66;5071911;28;20204;-72
2023/05/01 06:11:41;;;;;;;12.13;11.23;;;;;;;25.74;35.51;92980.09;5072577;28;20224;-71
2023/05/01 06:14:07;;;;;;;13.02;11.80;;;;;;;25.39;37.15;92978.88;5068277;28;20198;-72
2023/05/01 06:16:33;;;;;;;13.65;12.65;;;;;;;28.05;32.50;92992.16;5071005;28;20255;-72
2023/05/01 06:18:58;;;;;;;13.43;12.43;;;;;;;25.41;36.00;92990.72;5070753;28;20197;-71
2023/05/01 06:21:24;;;;;;;14.73;13.25;;;;;;;21.49;45.35;92978.22;5070834;28;20223;-71
2023/05/01 06:23:49;;;;;;;14.13;12.93;;;;;;;19.37;52.66;92975.00;5070929;28;20214;-71
2023/05/01 06:26:15;;;;;;;14.48;13.20;;;;;;;17.49;59.36;92980.19;5070153;28;20233;-70
2023/05/01 06:28:40;;;;;;;15.40;14.00;;;;;;;15.78;67.37;92970.94;5070210;28;20191;-71
2023/05/01 06:31:06;;;;;;;15.90;14.30;;;;;;;15.21;70.94;92969.09;5070627;28;20232;-72
2023/05/01 06:33:31;;;;;;;15.13;13.97;;;;;;;15.76;69.66;92965.19;5070360;28;20198;-71
2023/05/01 06:35:58;;;;;;;16.17;14.83;;;;;;;15.38;70.60;92971.88;5070245;28;20231;-72
2023/05/01 06:38:25;;;;;;;16.50;14.77;;;;;;;15.55;70.20;92972.00;5070612;28;20190;-72
2023/05/01 06:40:50;;;;;;;14.77;13.60;;;;;;;15.62;68.12;92931.06;5070044;28;20232;-68
2023/05/01 06:43:16;;;;;;;15.43;14.27;;;;;;;15.20;72.38;92970.97;5070690;28;20218;-69
2023/05/01 06:45:41;;;;;;;16.77;15.03;;;;;;;15.32;70.19;92973.84;5069445;28;20213;-68
2023/05/01 06:48:07;;;;;;;16.20;14.90;;;;;;;15.45;70.27;92980.16;5070440;28;20179;-68
2023/05/01 06:50:32;;;;;;;15.83;14.60;;;;;;;15.37;71.19;92973.75;5069282;28;20237;-69
2023/05/01 06:52:59;;;;;;;17.47;16.07;;;;;;;15.19;71.67;92972.03;5069994;28;20189;-69
2023/05/01 06:55:25;;;;;;;16.43;15.03;;;;;;;15.45;71.33;92974.91;5069851;28;20222;-69
2023/05/01 06:57:50;;;;;;;16.27;14.60;;;;;;;14.99;72.02;92976.97;5070037;28;20312;-72
2023/05/01 07:00:17;;;;;;;13.40;12.30;;;;;;;15.40;70.46;92981.06;5070121;28;20229;-71
2023/05/01 07:02:44;;;;;;;13.97;12.53;;;;;;;15.74;69.74;92969.97;5069800;28;20201;-72
2023/05/01 07:05:09;;;;;;;14.93;13.53;;;;;;;15.10;70.99;92986.19;5069338;28;20225;-73
2023/05/01 07:07:35;;;;;;;14.03;13.07;;;;;;;15.54;69.35;92981.00;5070587;28;20212;-72
2023/05/01 07:10:00;;;;;;;15.90;12.83;;;;;;;15.21;71.53;92979.63;5069508;28;20228;-71
2023/05/01 07:12:26;;;;;;;14.47;13.40;;;;;;;15.15;71.21;92981.59;5069667;28;20176;-68
2023/05/01 07:14:51;;;;;;;15.00;13.73;;;;;;;15.84;69.46;92985.53;5068921;28;20229;-68
2023/05/01 07:17:17;;;;;;;13.37;12.47;;;;;;;16.34;66.47;92984.25;5069567;28;20189;-68
2023/05/01 07:19:42;;;;;;;13.10;12.10;;;;;;;16.36;63.50;92986.59;5069278;28;20228;-69
2023/05/01 07:22:07;;;;;;;13.87;12.73;;;;;;;16.16;65.13;92985.25;5069319;28;20203;-67
2023/05/01 07:24:33;;;;;;;13.07;12.27;;;;;;;15.95;65.71;92987.59;5051727;28;20239;-67
2023/05/01 07:26:58;;;;;;;14.57;13.27;;;;;;;16.08;66.97;92988.59;5069187;28;20209;-69
2023/05/01 07:29:24;;;;;;;14.50;13.23;;;;;;;15.81;66.04;92972.97;5069753;28;20182;-72
2023/05/01 07:31:49;;;;;;;14.13;12.90;;;;;;;15.79;69.28;92998.81;5052182;28;20178;-70
2023/05/01 07:34:17;;;;;;;13.13;12.23;;;;;;;16.13;64.53;92993.75;5068952;28;20223;-71
2023/05/01 07:36:42;;;;;;;14.13;13.13;;;;;;;16.04;64.70;92990.28;5073524;28;20243;-71
2023/05/01 07:39:08;;;;;;;13.47;12.30;;;;;;;15.59;66.55;92989.56;5070032;28;20182;-73
2023/05/01 07:41:33;;;;;;;12.83;11.93;;;;;;;16.10;65.05;92989.09;5052794;28;20221;-73
2023/05/01 07:43:58;;;;;;;13.33;12.17;;;;;;;16.25;62.98;92978.16;5069354;28;20213;-70
2023/05/01 07:46:24;;;;;;;14.07;12.97;;;;;;;15.96;64.84;92989.19;5067878;28;20253;-70
2023/05/01 07:48:49;;;;;;;14.00;13.00;;;;;;;16.00;65.29;92984.06;5069572;28;20192;-69
2023/05/01 07:51:15;;;;;;;14.33;13.13;;;;;;;15.98;66.05;92996.78;5068503;28;20237;-68
2023/05/01 07:53:41;;;;;;;15.13;13.87;;;;;;;15.90;65.47;92992.22;5060887;28;20189;-71
2023/05/01 07:56:08;;;;;;;13.53;12.53;;;;;;;15.89;66.70;92993.31;5068475;28;20246;-70
2023/05/01 07:58:35;;;;;;;14.97;13.57;;;;;;;16.24;66.00;92971.34;5069376;28;20303;-70
2023/05/01 08:01:00;;;;;;;13.03;11.83;;;;;;;16.58;64.54;92978.59;5068780;28;21009;-69
2023/05/01 08:03:29;;;;;;;12.53;11.53;;;;;;;16.34;63.01;93002.69;5068080;28;20253;-69
2023/05/01 08:05:56;;;;;;;14.67;13.47;;;;;;;16.50;63.46;92997.84;5068025;28;20227;-68
2023/05/01 08:08:21;;;;;;;15.03;13.93;;;;;;;16.48;63.63;92995.50;5068674;28;20200;-70
2023/05/01 08:10:47;;;;;;;15.27;13.90;;;;;;;16.65;64.49;92990.28;5068382;28;20217;-70
2023/05/01 08:13:13;;;;;;;14.20;13.07;;;;;;;16.99;65.81;92993.00;5068369;28;21276;-68
2023/05/01 08:15:41;;;;;;;13.77;12.67;;;;;;;16.99;62.51;92994.84;5068213;28;20247;-68
2023/05/01 08:18:07;;;;;;;14.60;13.53;;;;;;;16.53;63.80;92976.88;5068897;28;20177;-72
2023/05/01 08:20:32;;;;;;;13.17;12.27;;;;;;;16.78;62.99;92992.00;5067650;28;20229;-69
2023/05/01 08:22:58;;;;;;;13.93;12.73;;;;;;;16.75;61.46;92995.25;5068313;28;20237;-71
2023/05/01 08:25:23;;;;;;;12.93;12.07;;;;;;;16.79;58.62;92990.94;5067936;28;20225;-69
2023/05/01 08:27:49;;;;;;;12.20;11.20;;;;;;;16.51;57.76;92994.88;5069585;28;20289;-67
2023/05/01 08:30:14;;;;;;;12.27;11.47;;;;;;;16.41;62.48;92989.84;5068692;28;20225;-71
2023/05/01 08:32:40;;;;;;;13.63;12.53;;;;;;;16.73;60.94;92999.28;5069743;28;20228;-71
2023/05/01 08:35:05;;;;;;;14.27;12.90;;;;;;;17.14;60.15;93000.47;5068844;28;20209;-71
2023/05/01 08:37:31;;;;;;;12.13;11.13;;;;;;;17.10;59.27;92989.00;5069091;28;20185;-70
2023/05/01 08:39:56;;;;;;;11.73;10.87;;;;;;;16.65;57.40;92990.28;5068627;28;20253;-70
2023/05/01 08:42:22;;;;;;;13.07;12.17;;;;;;;16.96;57.24;92985.69;5069066;28;20185;-70
2023/05/01 08:44:49;;;;;;;10.83;10.03;;;;;;;17.30;57.11;92987.59;5068607;28;20221;-71
2023/05/01 08:47:17;;;;;;;11.27;10.50;;;;;;;17.28;53.14;92990.53;5069447;28;20255;-73
2023/05/01 08:49:44;;;;;;;11.37;10.57;;;;;;;17.07;54.91;92991.47;5069100;28;20230;-68
2023/05/01 08:52:11;;;;;;;12.70;11.50;;;;;;;17.47;57.04;92995.53;5069645;28;20188;-72
2023/05/01 08:54:46;;;;;;;11.73;10.83;;;;;;;17.53;56.64;92989.81;5068460;28;20284;-72
2023/05/01 08:57:12;;;;;;;11.53;10.63;;;;;;;17.91;55.49;92989.16;5070183;28;20197;-72
2023/05/01 08:59:38;;;;;;;13.07;11.90;;;;;;;18.08;53.88;92994.41;5069474;28;20229;-70
2023/05/01 09:02:07;;;;;;;11.13;10.03;;;;;;;18.08;53.01;92989.09;5069718;28;20185;-70
2023/05/01 09:04:35;;;;;;;11.10;10.30;;;;;;;17.74;56.97;92983.88;5068654;28;20228;-71
2023/05/01 09:07:01;;;;;;;11.07;10.30;;;;;;;18.00;53.03;92985.41;5069232;28;20189;-75
2023/05/01 09:09:27;;;;;;;10.93;10.20;;;;;;;18.03;49.20;92986.63;5069059;28;20925;-74
2023/05/01 09:12:08;;;;;;;11.13;10.37;;;;;;;17.93;50.29;92987.72;5068780;28;20213;-74
2023/05/01 09:14:33;;;;;;;10.50;9.70;;;;;;;17.04;53.09;92971.72;5068140;28;20190;-74
2023/05/01 09:16:59;;;;;;;10.07;9.57;;;;;;;17.14;52.96;92982.00;5068913;28;20190;-74
2023/05/01 09:19:25;;;;;;;10.97;10.07;;;;;;;17.70;52.20;92977.69;5069111;28;20193;-74
2023/05/01 09:21:53;;;;;;;9.63;9.03;;;;;;;17.97;50.88;92982.59;5069031;28;20194;-74
2023/05/01 09:24:19;;;;;;;10.83;10.33;;;;;;;18.15;50.22;92989.41;5060779;28;20215;-74
2023/05/01 09:26:45;;;;;;;10.67;9.77;;;;;;;18.27;49.47;92982.34;5068350;28;20213;-74
2023/05/01 09:29:10;;;;;;;9.83;9.23;;;;;;;18.47;48.63;92976.44;5068559;28;20191;-74
2023/05/01 09:31:36;;;;;;;10.23;9.63;;;;;;;18.51;45.96;92989.78;5068111;28;20453;-74
2023/05/01 09:34:03;;;;;;;10.00;9.40;;;;;;;18.24;47.89;92971.66;5068708;28;20200;-74
2023/05/01 09:36:31;;;;;;;10.10;9.40;;;;;;;18.55;49.48;92991.47;5068090;28;20217;-73
2023/05/01 09:38:59;;;;;;;10.77;10.17;;;;;;;18.17;50.13;92990.63;5051370;28;20197;-74
2023/05/01 09:41:25;;;;;;;10.10;9.50;;;;;;;18.15;50.03;92984.88;5051217;28;20218;-74
2023/05/01 09:43:54;;;;;;;9.80;9.23;;;;;;;18.28;50.10;92989.22;5072421;28;20213;-74
2023/05/01 09:46:20;;;;;;;10.07;9.47;;;;;;;18.07;50.77;92977.75;5045083;28;20218;-74
2023/05/01 09:48:55;;;;;;;10.67;10.07;;;;;;;18.11;50.84;92989.25;5072698;28;20187;-74
2023/05/01 09:51:29;;;;;;;9.47;9.07;;;;;;;17.73;52.17;92987.63;5072250;28;20213;-74
2023/05/01 09:53:56;;;;;;;11.50;10.70;;;;;;;17.59;51.12;92993.06;5072388;28;20194;-73
2023/05/01 09:56:23;;;;;;;10.23;9.53;;;;;;;17.29;54.71;92978.88;5072048;28;20241;-74
2023/05/01 09:58:52;;;;;;;9.90;9.20;;;;;;;17.56;50.71;92983.13;5054955;28;20186;-74
2023/05/01 10:01:37;;;;;;;9.67;9.13;;;;;;;17.63;50.77;92973.63;5072477;28;20232;-75
2023/05/01 10:04:02;;;;;;;9.90;9.40;;;;;;;17.55;50.10;92965.72;5072106;28;20223;-74
2023/05/01 10:06:28;;;;;;;9.90;8.90;;;;;;;17.29;53.62;92965.69;5071990;28;20225;-74
2023/05/01 10:08:53;;;;;;;10.47;9.67;;;;;;;17.31;52.04;92970.66;5068685;28;20185;-75
2023/05/01 10:11:20;;;;;;;9.23;8.73;;;;;;;17.77;49.46;92968.19;5071932;28;20277;-74
2023/05/01 10:13:52;;;;;;;9.80;9.30;;;;;;;17.70;49.67;92978.44;5072425;28;20174;-74
2023/05/01 10:16:29;;;;;;;9.43;8.93;;;;;;;17.42;49.96;92969.25;5071900;28;20229;-74
2023/05/01 10:18:59;;;;;;;8.83;8.13;;;;;;;17.46;50.02;92970.25;5057482;28;20189;-74
2023/05/01 10:21:24;;;;;;;9.67;9.17;;;;;;;17.24;50.64;92971.16;5071517;28;20281;-74
2023/05/01 10:23:51;;;;;;;10.07;9.37;;;;;;;17.30;51.53;92971.75;5071653;28;20217;-76
2023/05/01 10:26:17;;;;;;;9.90;9.37;;;;;;;16.98;54.92;92961.66;5071371;28;21254;-74
2023/05/01 10:28:45;;;;;;;9.40;8.77;;;;;;;17.33;51.98;92965.84;5071748;28;20182;-74
2023/05/01 10:31:12;;;;;;;10.40;9.77;;;;;;;17.21;52.11;92966.47;5071887;28;20948;-75
2023/05/01 10:33:42;;;;;;;9.50;8.93;;;;;;;17.23;53.27;92969.56;5071828;28;20171;-74
2023/05/01 10:36:16;;;;;;;9.50;8.90;;;;;;;17.35;52.21;92969.72;5071270;28;20231;-74
2023/05/01 10:38:46;;;;;;;9.80;9.20;;;;;;;17.57;50.98;92966.19;5041404;28;20185;-75
2023/05/01 10:41:12;;;;;;;9.67;9.07;;;;;;;17.70;51.95;92962.59;5071152;28;20285;-74
2023/05/01 10:43:38;;;;;;;9.20;8.60;;;;;;;18.04;50.24;92961.78;5071804;28;20209;-75
2023/05/01 10:46:06;;;;;;;10.10;9.53;;;;;;;18.26;49.76;92977.38;5071294;28;20758;-74
2023/05/01 10:48:41;;;;;;;9.57;8.97;;;;;;;18.41;49.16;92977.66;5071614;28;20258;-74
2023/05/01 10:51:07;;;;;;;11.00;10.20;;;;;;;18.67;49.99;92969.63;5070866;28;20319;-74
2023/05/01 10:53:32;;;;;;;9.80;9.07;;;;;;;18.91;48.37;92969.84;5071252;28;20181;-74
2023/05/01 10:55:58;;;;;;;9.60;9.03;;;;;;;18.85;48.21;92976.38;5070939;28;20233;-75
2023/05/01 10:58:36;;;;;;;9.27;8.50;;;;;;;18.64;47.66;92975.56;5054004;28;20228;-75
2023/05/01 11:01:26;;;;;;;9.83;9.13;;;;;;;18.64;45.40;92973.72;5070875;28;20217;-75
2023/05/01 11:03:51;;;;;;;9.30;8.73;;;;;;;18.91;44.95;92972.47;5071062;28;20201;-74
2023/05/01 11:06:16;;;;;;;9.83;9.23;;;;;;;18.89;48.00;92961.44;5071127;28;20249;-74
2023/05/01 11:08:44;;;;;;;10.43;9.87;;;;;;;18.61;49.44;92939.19;5071168;28;20189;-75
2023/05/01 11:11:18;;;;;;;9.83;9.33;;;;;;;18.34;51.62;92966.78;5071102;28;21241;-75
2023/05/01 11:14:00;;;;;;;9.40;8.70;;;;;;;18.49;51.67;92968.19;5071294;28;20229;-74
2023/05/01 11:16:47;;;;;;;10.23;9.63;;;;;;;18.80;50.73;92973.94;5070589;28;20229;-74
2023/05/01 11:19:21;;;;;;;9.10;8.60;;;;;;;18.69;50.18;92975.41;5061141;28;20197;-74
2023/05/01 11:21:48;;;;;;;10.30;9.37;;;;;;;18.50;52.04;92962.56;5070605;28;20213;-75
2023/05/01 11:24:13;;;;;;;9.00;8.60;;;;;;;18.81;50.62;92955.09;5070845;28;20244;-75